Valentine, Texas
Current Conditions -  °F | °C
As of 8:55 AM on Monday 22 Dec 2014 (Local Time) from KMRF Reporting Station
Clear Clear  
Wind Chill: 43°   Ceiling: Unl
Heat Index: 48°   Visibility: 10mi
Dew Point: 27°   Wind: 12mph
Humidity: 43%   Direction: 280°W
Pressure: 29.96"   Gusts: NA
Location:  30.59°N, 104.5°W
Report Text: KMRF 221455Z AUTO 28010KT 10SM CLR 09/M03 A2996 RMK AO1 52003
Loading
Personal Weather Stations






























Interactive Weather Map New forecast layout! Learn more

10-Day Weather Forecast

Advertisements
Track Severe Weather on mobile